Time;durP1;ratioP1;P1;durP2;ratioP2;P2;SDS_P1;SDS_P2;PMS_P1;PMS_P2;Temp;Humidity;BMP_temperature;BMP_pressure;BME280_temperature;BME280_humidity;BME280_pressure;Samples;Min_cycle;Max_cycle;Signal;HPM_P1;HPM_P2
2022/09/03 00:02:02;;;;;;;9.90;2.53;;;;;;;17.82;46.42;100974.94;5169575;28;20153;-73
2022/09/03 00:04:39;;;;;;;10.27;3.17;;;;;;;17.86;46.21;100979.00;5168919;28;20445;-74
2022/09/03 00:07:19;;;;;;;7.90;2.47;;;;;;;17.89;46.35;100976.06;5169451;28;20062;-74
2022/09/03 00:10:00;;;;;;;6.73;2.77;;;;;;;17.92;46.06;100976.78;5169538;28;20046;-71
2022/09/03 00:12:38;;;;;;;7.30;2.50;;;;;;;17.77;46.55;100974.53;5169255;28;20057;-71
2022/09/03 00:15:13;;;;;;;8.07;2.40;;;;;;;17.75;46.20;100963.25;5169100;28;20122;-72
2022/09/03 00:17:48;;;;;;;8.53;2.50;;;;;;;17.68;46.48;100972.69;5167421;28;20031;-72
2022/09/03 00:20:32;;;;;;;5.47;2.40;;;;;;;17.89;45.72;100962.84;5156533;28;20042;-72
2022/09/03 00:23:06;;;;;;;7.07;3.20;;;;;;;17.69;45.87;100966.41;5147247;29;20411;-72
2022/09/03 00:25:41;;;;;;;6.65;2.40;;;;;;;17.80;46.26;100965.47;5148326;28;20102;-71
2022/09/03 00:28:23;;;;;;;6.57;2.80;;;;;;;17.78;45.76;100968.25;5165901;28;20023;-71
2022/09/03 00:31:23;;;;;;;9.97;3.17;;;;;;;17.79;46.11;100964.63;5162489;28;20019;-71
2022/09/03 00:34:03;;;;;;;14.23;4.50;;;;;;;17.65;46.08;100963.22;5143979;29;20035;-71
2022/09/03 00:36:42;;;;;;;8.50;3.60;;;;;;;17.57;47.22;100974.50;5146252;29;20019;-71
2022/09/03 00:39:20;;;;;;;8.27;4.40;;;;;;;17.44;46.96;100974.72;5148664;28;20162;-71
2022/09/03 00:42:06;;;;;;;5.63;4.10;;;;;;;17.37;47.22;100974.41;5147770;28;20367;-71
2022/09/03 00:45:06;;;;;;;7.00;3.87;;;;;;;17.50;46.64;100974.19;5148148;28;20034;-72
2022/09/03 00:47:56;;;;;;;11.00;4.13;;;;;;;17.47;47.69;100973.63;5149754;28;20042;-72
2022/09/03 00:51:01;;;;;;;6.23;3.83;;;;;;;17.70;46.19;100970.75;5146281;28;20055;-72
2022/09/03 00:53:59;;;;;;;7.93;4.32;;;;;;;17.61;46.39;100973.22;5147965;29;20031;-72
2022/09/03 00:56:52;;;;;;;16.17;4.60;;;;;;;17.58;46.59;100970.84;5148352;28;20592;-72
2022/09/03 01:00:03;;;;;;;8.53;4.10;;;;;;;17.53;46.92;100975.72;5147824;28;20035;-72
2022/09/03 01:03:01;;;;;;;9.53;4.33;;;;;;;17.41;47.18;100970.53;5119047;29;20035;-71
2022/09/03 01:05:42;;;;;;;9.37;4.03;;;;;;;17.23;47.20;100965.03;5135442;29;20031;-72
2022/09/03 01:08:34;;;;;;;8.53;4.20;;;;;;;17.26;47.18;100958.66;5147746;28;20051;-72
2022/09/03 01:14:05;;;;;;;10.87;4.77;;;;;;;17.10;47.57;100957.31;5152347;23;20444;-72
2022/09/03 01:16:50;;;;;;;12.03;4.40;;;;;;;17.20;47.85;100965.28;5147483;28;20039;-72
2022/09/03 01:19:27;;;;;;;8.80;5.13;;;;;;;17.03;48.00;100953.50;5147701;28;20031;-73
2022/09/03 01:22:23;;;;;;;9.33;5.67;;;;;;;17.17;47.63;100949.69;5147901;29;20248;-72
2022/09/03 01:25:16;;;;;;;14.30;5.37;;;;;;;17.04;47.45;100956.00;5148062;28;20035;-73
2022/09/03 01:28:12;;;;;;;9.03;4.57;;;;;;;17.09;47.75;100963.53;5134885;29;20061;-73
2022/09/03 01:30:47;;;;;;;10.33;5.50;;;;;;;16.84;48.30;100956.88;5147276;28;20178;-72
2022/09/03 01:33:42;;;;;;;10.17;4.20;;;;;;;17.08;47.52;100961.03;5147260;28;20055;-72
2022/09/03 01:36:23;;;;;;;8.95;4.75;;;;;;;16.98;47.89;100963.63;5145865;28;20108;-73
2022/09/03 01:39:05;;;;;;;7.37;5.60;;;;;;;17.04;47.48;100961.31;5147895;28;20027;-73
2022/09/03 01:42:15;;;;;;;11.50;6.03;;;;;;;16.77;48.46;100956.56;5145851;28;20043;-72
2022/09/03 01:45:06;;;;;;;11.90;5.90;;;;;;;16.79;48.78;100957.28;5143487;29;20059;-72
2022/09/03 01:47:51;;;;;;;10.63;6.07;;;;;;;16.93;48.36;100962.22;5150897;28;20049;-72
2022/09/03 01:50:36;;;;;;;11.57;5.80;;;;;;;16.68;48.79;100964.31;5149198;29;20043;-73
2022/09/03 01:53:29;;;;;;;10.30;5.77;;;;;;;16.69;48.83;100958.03;5151442;28;20035;-72
2022/09/03 01:56:16;;;;;;;15.23;6.87;;;;;;;16.74;48.77;100959.47;5151638;29;20557;-72
2022/09/03 01:59:21;;;;;;;10.03;6.90;;;;;;;16.86;47.90;100953.13;5151828;28;20090;-72
2022/09/03 02:02:01;;;;;;;8.82;6.03;;;;;;;16.64;49.12;100952.31;5149943;29;20035;-72
2022/09/03 02:04:32;;;;;;;14.33;6.60;;;;;;;16.71;48.81;100962.34;5150826;28;20062;-72
2022/09/03 02:07:04;;;;;;;15.73;7.03;;;;;;;16.76;47.57;100957.50;5151466;28;20465;-72
2022/09/03 02:09:36;;;;;;;9.47;5.63;;;;;;;16.51;49.31;100955.13;5151256;28;20031;-72
2022/09/03 02:12:13;;;;;;;8.73;5.50;;;;;;;16.54;49.06;100957.53;5150093;29;20046;-72
2022/09/03 02:14:45;;;;;;;9.47;5.67;;;;;;;16.59;48.98;100953.66;5151654;28;20118;-72
2022/09/03 02:17:17;;;;;;;9.67;4.97;;;;;;;16.69;48.45;100952.75;5151025;28;20615;-72
2022/09/03 02:19:49;;;;;;;9.90;5.57;;;;;;;16.59;49.24;100951.84;5150209;28;20039;-72
2022/09/03 02:22:20;;;;;;;9.83;5.30;;;;;;;16.53;48.88;100949.75;5150293;28;20047;-72
2022/09/03 02:24:51;;;;;;;13.80;6.00;;;;;;;16.41;49.44;100949.78;5149413;29;20628;-72
2022/09/03 02:27:23;;;;;;;11.07;5.57;;;;;;;16.44;49.34;100946.88;5150820;28;20037;-72
2022/09/03 02:29:55;;;;;;;9.60;5.00;;;;;;;16.37;49.44;100950.19;5150950;29;20031;-72
2022/09/03 02:32:27;;;;;;;15.13;5.27;;;;;;;16.30;49.44;100955.13;5148727;28;20027;-72
2022/09/03 02:34:59;;;;;;;10.07;5.07;;;;;;;16.11;50.52;100942.59;5150508;28;20722;-72
2022/09/03 02:37:30;;;;;;;12.60;5.53;;;;;;;16.28;49.94;100959.69;5150242;28;20203;-72
2022/09/03 02:40:05;;;;;;;12.93;6.60;;;;;;;16.09;50.97;100956.75;5150650;29;20318;-72
2022/09/03 02:42:36;;;;;;;14.60;6.47;;;;;;;16.17;50.39;100956.16;5149234;28;20494;-72
2022/09/03 02:45:28;;;;;;;10.57;6.47;;;;;;;16.31;49.56;100943.59;5150358;29;20031;-72
2022/09/03 02:47:59;;;;;;;16.67;6.83;;;;;;;16.11;49.84;100951.34;5150508;28;20039;-72
2022/09/03 02:50:30;;;;;;;11.23;6.27;;;;;;;16.19;49.91;100946.28;5149382;28;20046;-72
2022/09/03 02:53:02;;;;;;;11.67;5.70;;;;;;;15.99;50.59;100945.25;5150334;29;20062;-72
2022/09/03 02:55:33;;;;;;;10.50;5.73;;;;;;;16.14;50.32;100951.13;5149476;28;20130;-71
2022/09/03 02:58:05;;;;;;;12.00;5.90;;;;;;;16.00;50.66;100948.75;5150278;28;20058;-72
2022/09/03 03:00:37;;;;;;;11.20;6.77;;;;;;;16.11;50.25;100938.13;5149213;29;20601;-71
2022/09/03 03:03:08;;;;;;;9.43;5.67;;;;;;;16.13;50.21;100946.78;5149908;28;20050;-72
2022/09/03 03:05:48;;;;;;;10.70;5.83;;;;;;;16.13;50.22;100948.59;5149489;28;20046;-72
2022/09/03 03:08:22;;;;;;;9.87;4.93;;;;;;;16.14;49.89;100945.84;5148712;28;20054;-72
2022/09/03 03:10:59;;;;;;;10.15;6.57;;;;;;;15.97;50.61;100958.56;5150536;28;20039;-71
2022/09/03 03:13:31;;;;;;;11.80;6.73;;;;;;;15.80;50.53;100940.59;5149323;28;20128;-72
2022/09/03 03:16:07;;;;;;;10.23;6.80;;;;;;;15.93;51.28;100951.88;5149996;28;20027;-72
2022/09/03 03:18:39;;;;;;;14.40;7.77;;;;;;;16.13;50.59;100954.72;5148718;29;20398;-72
2022/09/03 03:21:13;;;;;;;19.83;8.20;;;;;;;15.88;50.96;100943.50;5148545;28;20035;-71
2022/09/03 03:23:44;;;;;;;10.73;6.65;;;;;;;15.96;50.90;100954.25;5149984;28;20525;-72
2022/09/03 03:26:18;;;;;;;12.13;5.87;;;;;;;15.81;51.17;100953.69;5149467;28;20058;-72
2022/09/03 03:28:55;;;;;;;11.65;6.40;;;;;;;15.84;51.14;100947.34;5150280;28;20402;-72
2022/09/03 03:31:27;;;;;;;10.17;6.00;;;;;;;15.82;51.13;100951.91;5149831;28;20031;-72
2022/09/03 03:34:02;;;;;;;11.30;5.83;;;;;;;15.87;51.39;100947.06;5149642;28;20397;-72
2022/09/03 03:36:34;;;;;;;11.67;5.93;;;;;;;15.77;51.48;100951.44;5149561;28;20035;-71
2022/09/03 03:39:05;;;;;;;12.00;5.60;;;;;;;15.78;51.53;100953.13;5149477;28;20409;-72
2022/09/03 03:41:37;;;;;;;11.60;5.80;;;;;;;15.76;50.72;100957.69;5147649;29;20038;-72
2022/09/03 03:44:08;;;;;;;11.23;5.50;;;;;;;15.64;51.53;100941.03;5150014;28;20031;-72
2022/09/03 03:46:40;;;;;;;10.67;4.87;;;;;;;15.68;51.36;100945.09;5148472;28;20027;-72
2022/09/03 03:49:12;;;;;;;10.27;5.27;;;;;;;15.76;51.36;100944.47;5148756;28;20059;-71
2022/09/03 03:51:43;;;;;;;8.70;4.63;;;;;;;15.66;51.67;100947.00;5148800;28;20127;-71
2022/09/03 03:54:14;;;;;;;9.90;5.40;;;;;;;15.71;51.39;100950.97;5148785;28;20019;-72
2022/09/03 03:56:45;;;;;;;8.33;5.03;;;;;;;15.70;50.85;100949.28;5147099;28;20393;-71
2022/09/03 03:59:17;;;;;;;10.67;5.33;;;;;;;15.70;51.10;100949.28;5148644;29;20599;-71
2022/09/03 04:01:49;;;;;;;8.27;4.93;;;;;;;15.70;51.33;100941.38;5149374;28;20557;-71
2022/09/03 04:04:20;;;;;;;9.17;5.63;;;;;;;15.64;51.54;100951.59;5147591;28;20031;-71
2022/09/03 04:06:52;;;;;;;8.93;5.63;;;;;;;15.59;51.84;100944.00;5147454;28;20027;-71
2022/09/03 04:09:23;;;;;;;11.87;5.73;;;;;;;15.64;52.05;100954.22;5149097;29;20031;-70
2022/09/03 04:11:56;;;;;;;10.57;6.10;;;;;;;15.76;51.65;100944.47;5148519;28;20780;-71
2022/09/03 04:14:27;;;;;;;12.83;6.27;;;;;;;15.48;51.94;100942.25;5149075;28;20467;-71
2022/09/03 04:16:59;;;;;;;11.87;5.63;;;;;;;15.62;51.99;100948.22;5147598;29;20057;-71
2022/09/03 04:19:30;;;;;;;8.47;5.03;;;;;;;15.68;51.76;100947.72;5145907;29;20102;-71
2022/09/03 04:22:02;;;;;;;10.70;5.43;;;;;;;15.64;51.79;100936.56;5148625;28;20037;-71
2022/09/03 04:24:34;;;;;;;13.20;4.90;;;;;;;15.59;52.10;100941.38;5148446;28;20043;-71
2022/09/03 04:27:05;;;;;;;7.57;4.60;;;;;;;15.53;52.08;100939.25;5146751;29;20486;-71
2022/09/03 04:29:37;;;;;;;10.57;4.37;;;;;;;15.60;51.42;100935.16;5148804;29;20033;-71
2022/09/03 04:34:58;;;;;;;8.57;4.83;;;;;;;15.61;52.05;100942.09;5147850;29;20039;-71
2022/09/03 04:37:29;;;;;;;9.10;4.53;;;;;;;15.46;52.48;100937.06;5146960;28;20023;-71
2022/09/03 04:40:00;;;;;;;7.47;4.90;;;;;;;15.52;52.22;100933.09;5148696;28;20035;-72
2022/09/03 04:42:32;;;;;;;10.83;5.30;;;;;;;15.38;52.68;100938.66;5148831;28;20039;-72
2022/09/03 04:45:04;;;;;;;9.27;4.83;;;;;;;15.47;52.07;100940.56;5148321;28;20102;-72
2022/09/03 04:47:36;;;;;;;7.33;4.87;;;;;;;15.58;51.91;100942.34;5147685;28;20038;-72
2022/09/03 04:50:08;;;;;;;7.33;4.23;;;;;;;15.34;53.03;100953.91;5147990;28;20031;-72
2022/09/03 04:52:39;;;;;;;9.00;5.00;;;;;;;15.33;52.53;100939.84;5136362;28;20027;-72
2022/09/03 04:55:10;;;;;;;7.53;4.33;;;;;;;15.40;52.45;100945.47;5137723;29;20490;-72
2022/09/03 04:57:43;;;;;;;11.47;4.73;;;;;;;15.32;53.04;100939.97;5147979;29;20137;-72
2022/09/03 05:00:17;;;;;;;9.33;4.70;;;;;;;15.36;53.79;100949.31;5146010;29;20430;-72
2022/09/03 05:02:50;;;;;;;12.27;4.57;;;;;;;15.42;52.66;100951.50;5148271;28;20073;-72
2022/09/03 05:05:21;;;;;;;9.32;5.55;;;;;;;15.29;52.90;100950.78;5147005;28;20676;-72
2022/09/03 05:07:57;;;;;;;9.27;5.23;;;;;;;15.42;52.53;100942.72;5148235;28;20035;-72
2022/09/03 05:10:29;;;;;;;10.87;5.10;;;;;;;15.34;53.12;100948.63;5146952;29;20061;-72
2022/09/03 05:13:03;;;;;;;11.77;4.97;;;;;;;15.28;53.06;100943.81;5150679;28;20035;-73
2022/09/03 05:15:35;;;;;;;;;;;;;;;15.67;51.24;100946.91;5150659;28;20094;-73
2022/09/03 05:18:06;;;;;;;13.57;5.20;;;;;;;15.46;51.88;100942.34;5149069;28;19926;-72
2022/09/03 05:20:37;;;;;;;8.53;5.53;;;;;;;15.38;52.64;100944.75;5151359;29;20031;-72
2022/09/03 05:23:09;;;;;;;12.47;5.50;;;;;;;15.32;52.93;100942.63;5151998;29;20157;-72
2022/09/03 05:25:40;;;;;;;12.50;5.13;;;;;;;15.31;53.18;100938.28;5150699;29;20054;-72
2022/09/03 05:28:12;;;;;;;8.73;4.57;;;;;;;15.45;52.21;100942.47;5156596;29;20038;-72
2022/09/03 05:30:43;;;;;;;14.53;5.20;;;;;;;15.31;53.18;100940.91;5151498;28;20034;-72
2022/09/03 05:33:15;;;;;;;9.63;4.87;;;;;;;15.45;53.29;100940.69;5151753;29;20028;-72
2022/09/03 05:35:46;;;;;;;9.37;4.60;;;;;;;15.28;54.46;100931.47;5150844;28;20015;-72
2022/09/03 05:38:18;;;;;;;10.07;4.90;;;;;;;15.42;53.09;100946.22;5151001;28;20027;-72
2022/09/03 05:40:49;;;;;;;12.00;4.37;;;;;;;15.45;53.39;100943.31;5152532;28;20019;-72
2022/09/03 05:43:20;;;;;;;12.03;5.37;;;;;;;15.50;53.16;100944.75;5151230;29;20039;-72
2022/09/03 05:46:00;;;;;;;12.33;5.23;;;;;;;15.51;53.47;100943.78;5151496;29;20088;-72
2022/09/03 05:48:33;;;;;;;12.73;4.90;;;;;;;15.52;52.45;100941.03;5151104;28;20058;-72
2022/09/03 05:51:17;;;;;;;9.93;5.57;;;;;;;15.67;52.15;100944.25;5149596;29;20282;-72
2022/09/03 05:53:48;;;;;;;15.57;5.30;;;;;;;15.59;53.34;100938.72;5151553;28;20039;-72
2022/09/03 05:56:22;;;;;;;9.00;4.57;;;;;;;15.68;52.97;100948.56;5154789;29;20042;-72
2022/09/03 05:58:56;;;;;;;10.45;4.68;;;;;;;15.85;51.66;100949.84;5151704;29;20031;-72
2022/09/03 06:01:30;;;;;;;9.43;5.28;;;;;;;15.81;51.72;100953.69;5140629;29;20066;-72
2022/09/03 06:04:07;;;;;;;11.05;5.15;;;;;;;15.99;51.56;100944.41;5150559;28;20035;-72
2022/09/03 06:06:44;;;;;;;15.30;6.00;;;;;;;16.01;51.15;100942.50;5150528;28;20505;-72
2022/09/03 06:09:18;;;;;;;13.33;5.90;;;;;;;16.05;51.13;100942.13;5156674;28;20811;-72
2022/09/03 06:11:49;;;;;;;;;;;;;;;16.23;50.73;100951.31;5151682;28;20034;-72
2022/09/03 06:14:21;;;;;;;15.57;5.73;;;;;;;16.07;52.35;100937.56;5150110;29;19922;-72
2022/09/03 06:16:54;;;;;;;12.13;5.90;;;;;;;16.23;51.73;100946.03;5151371;28;20394;-72
2022/09/03 06:19:26;;;;;;;12.80;6.77;;;;;;;16.23;51.62;100951.31;5147999;29;20039;-72
2022/09/03 06:21:57;;;;;;;11.70;6.53;;;;;;;16.30;51.97;100948.03;5150880;28;20031;-72
2022/09/03 06:24:28;;;;;;;12.20;5.77;;;;;;;16.40;50.79;100952.56;5150435;29;20097;-72
2022/09/03 06:27:00;;;;;;;13.90;5.63;;;;;;;16.35;50.94;100939.72;5150478;29;20046;-72
2022/09/03 06:29:31;;;;;;;13.30;6.10;;;;;;;16.48;51.08;100955.41;5149933;28;20027;-72
2022/09/03 06:32:03;;;;;;;12.03;5.43;;;;;;;16.45;51.20;100948.56;5149385;28;20034;-72
2022/09/03 06:34:35;;;;;;;12.87;5.93;;;;;;;16.62;52.31;100948.94;5149783;28;20506;-72
2022/09/03 06:37:06;;;;;;;19.17;6.47;;;;;;;16.76;50.51;100952.22;5150856;29;20034;-72
2022/09/03 06:39:37;;;;;;;13.17;6.23;;;;;;;16.74;50.69;100949.72;5148824;29;20072;-72
2022/09/03 06:42:08;;;;;;;10.73;5.43;;;;;;;16.95;50.67;100950.69;5150053;28;20038;-72
2022/09/03 06:44:40;;;;;;;16.87;6.47;;;;;;;17.01;50.67;100955.44;5150151;29;20046;-72
2022/09/03 06:47:11;;;;;;;14.47;7.13;;;;;;;17.02;49.80;100955.28;5149578;28;20039;-72
2022/09/03 06:49:43;;;;;;;14.27;6.23;;;;;;;17.18;49.53;100959.28;5149439;28;20031;-72
2022/09/03 06:52:14;;;;;;;14.83;6.50;;;;;;;17.15;49.72;100955.13;5148523;28;20039;-72
2022/09/03 06:54:47;;;;;;;13.63;5.80;;;;;;;17.20;49.66;100964.44;5152606;28;20429;-72
2022/09/03 06:57:19;;;;;;;14.00;7.83;;;;;;;17.22;49.51;100954.56;5149544;28;20055;-72
2022/09/03 06:59:50;;;;;;;14.93;6.40;;;;;;;17.38;49.02;100960.22;5147900;28;20047;-72
2022/09/03 07:02:21;;;;;;;16.33;6.80;;;;;;;17.45;49.50;100955.22;5149825;28;20054;-72
2022/09/03 07:04:53;;;;;;;10.80;4.90;;;;;;;17.50;48.46;100955.66;5147985;28;20035;-72
2022/09/03 07:07:24;;;;;;;15.03;6.50;;;;;;;17.58;48.81;100952.31;5150948;28;20101;-71
2022/09/03 07:09:55;;;;;;;17.93;7.57;;;;;;;17.73;49.53;100951.94;5153264;28;20037;-72
2022/09/03 07:12:26;;;;;;;13.07;5.63;;;;;;;17.81;48.69;100954.75;5149118;28;20051;-72
2022/09/03 07:14:58;;;;;;;11.77;4.20;;;;;;;17.96;47.80;100962.31;5150035;29;20031;-72
2022/09/03 07:17:29;;;;;;;9.67;3.57;;;;;;;18.00;48.35;100966.31;5149596;29;20031;-72
2022/09/03 07:20:00;;;;;;;12.70;3.70;;;;;;;18.06;47.66;100964.94;5148168;29;20115;-72
2022/09/03 07:22:31;;;;;;;7.30;3.10;;;;;;;18.19;47.69;100954.09;5148249;29;20035;-71
2022/09/03 07:25:03;;;;;;;8.60;3.47;;;;;;;18.28;47.54;100955.06;5148471;29;20090;-72
2022/09/03 07:27:34;;;;;;;7.63;3.03;;;;;;;18.35;47.29;100953.53;5147930;29;20031;-72
2022/09/03 07:30:09;;;;;;;6.57;2.60;;;;;;;18.38;47.19;100959.38;5149173;28;20035;-72
2022/09/03 07:32:40;;;;;;;6.87;1.90;;;;;;;18.47;47.91;100954.22;5147973;28;20027;-72
2022/09/03 07:35:12;;;;;;;7.17;2.23;;;;;;;18.43;46.67;100955.50;5148524;29;20035;-72
2022/09/03 07:37:43;;;;;;;5.43;1.83;;;;;;;18.52;46.57;100959.09;5148427;28;20038;-72
2022/09/03 07:40:18;;;;;;;8.37;1.73;;;;;;;18.56;46.89;100960.47;5148103;29;20031;-72
2022/09/03 07:42:57;;;;;;;6.73;1.70;;;;;;;18.92;46.32;100952.72;5147810;28;20024;-71
2022/09/03 07:45:32;;;;;;;8.57;2.00;;;;;;;19.56;46.17;100954.72;5134826;29;20023;-73
2022/09/03 07:48:04;;;;;;;9.43;1.70;;;;;;;20.27;44.11;100959.41;5148990;28;20228;-74
2022/09/03 07:50:38;;;;;;;2.93;1.77;;;;;;;20.80;42.75;100959.44;5147966;28;20633;-73
2022/09/03 07:53:09;;;;;;;5.45;1.30;;;;;;;21.56;40.81;100959.78;5128201;29;20027;-73
2022/09/03 07:55:40;;;;;;;10.47;1.40;;;;;;;22.53;39.59;100949.56;5139741;29;20592;-73
2022/09/03 07:58:13;;;;;;;3.90;1.20;;;;;;;22.93;37.96;100963.03;5149161;29;20042;-73
2022/09/03 08:00:44;;;;;;;5.50;1.67;;;;;;;23.92;37.25;100961.72;5148317;28;20108;-73
2022/09/03 08:03:15;;;;;;;4.72;1.60;;;;;;;24.34;35.59;100961.44;5148098;28;20442;-74
2022/09/03 08:05:46;;;;;;;6.30;1.70;;;;;;;24.77;34.76;100954.63;5147897;28;20074;-73
2022/09/03 08:08:18;;;;;;;6.78;1.60;;;;;;;25.22;34.21;100969.91;5148745;28;20031;-72
2022/09/03 08:10:49;;;;;;;4.95;2.00;;;;;;;25.76;33.32;100969.72;5148094;28;20042;-73
2022/09/03 08:13:21;;;;;;;5.90;1.67;;;;;;;25.61;33.18;100965.19;5147854;29;20058;-73
2022/09/03 08:15:53;;;;;;;4.00;1.23;;;;;;;26.14;32.17;100971.28;5148326;29;20039;-73
2022/09/03 08:18:26;;;;;;;4.23;1.27;;;;;;;27.16;31.25;100962.09;5147653;28;20031;-73
2022/09/03 08:20:58;;;;;;;4.65;1.20;;;;;;;27.37;31.04;100968.38;5147664;28;20155;-74
2022/09/03 08:23:30;;;;;;;5.43;1.35;;;;;;;27.06;31.30;100970.50;5148688;28;20031;-74
2022/09/03 08:26:02;;;;;;;4.18;1.33;;;;;;;28.11;30.09;100973.09;5148806;28;20031;-72
2022/09/03 08:28:35;;;;;;;4.70;1.10;;;;;;;27.52;30.85;100977.13;5148094;28;20998;-72
2022/09/03 08:31:12;;;;;;;4.10;1.50;;;;;;;27.08;31.36;100979.22;5147159;28;20027;-73
2022/09/03 08:33:52;;;;;;;4.50;1.10;;;;;;;26.53;32.71;100977.22;5146391;28;20039;-73
2022/09/03 08:36:26;;;;;;;8.18;1.40;;;;;;;26.31;31.68;100978.06;5147512;28;20526;-72
2022/09/03 08:39:02;;;;;;;6.22;1.70;;;;;;;26.04;34.22;100980.50;5146993;28;20486;-72
2022/09/03 08:41:52;;;;;;;4.32;1.23;;;;;;;26.15;33.22;100987.19;5146874;28;20116;-72
2022/09/03 08:44:46;;;;;;;6.47;1.42;;;;;;;26.01;33.15;100996.16;5139608;28;20035;-73
2022/09/03 08:47:36;;;;;;;4.35;1.40;;;;;;;25.89;32.48;100991.28;5136849;28;20035;-72
2022/09/03 08:50:23;;;;;;;5.53;1.42;;;;;;;25.73;34.16;100992.34;5125786;29;20047;-72
2022/09/03 08:53:17;;;;;;;2.78;1.60;;;;;;;25.56;33.32;100979.16;5133003;29;20397;-72
2022/09/03 08:55:56;;;;;;;3.95;1.40;;;;;;;25.43;33.47;100984.38;5145954;29;20065;-72
2022/09/03 08:58:32;;;;;;;2.58;1.08;;;;;;;25.45;34.21;100985.84;5145320;28;20617;-72
2022/09/03 09:01:25;;;;;;;4.07;1.33;;;;;;;25.52;33.26;100979.75;5145249;29;20482;-74
2022/09/03 09:04:04;;;;;;;3.85;1.20;;;;;;;24.97;33.42;100975.56;5143157;29;20039;-74
2022/09/03 09:06:41;;;;;;;7.00;1.67;;;;;;;25.11;33.46;100984.59;5146489;28;20118;-74
2022/09/03 09:09:34;;;;;;;4.78;1.38;;;;;;;25.10;33.59;100977.59;5147333;28;20023;-74
2022/09/03 09:12:32;;;;;;;8.52;1.35;;;;;;;25.45;33.78;100985.03;5145225;29;20140;-74
2022/09/03 09:15:22;;;;;;;6.00;1.30;;;;;;;24.98;33.93;100980.72;5146065;28;20090;-73
2022/09/03 09:18:01;;;;;;;4.72;1.05;;;;;;;25.22;33.68;100983.31;5147698;29;20031;-73
2022/09/03 09:21:05;;;;;;;3.13;1.15;;;;;;;25.27;34.07;100988.94;5146386;28;20031;-74
2022/09/03 09:23:45;;;;;;;7.45;1.30;;;;;;;25.24;34.57;100987.44;5147520;29;20042;-74
2022/09/03 09:26:20;;;;;;;4.40;1.23;;;;;;;25.04;33.94;100986.34;5147378;28;20094;-74
2022/09/03 09:29:04;;;;;;;5.78;1.75;;;;;;;25.42;34.13;100986.22;5147637;28;20039;-74
2022/09/03 09:31:38;;;;;;;7.57;1.65;;;;;;;25.32;34.24;100986.53;5147340;28;20039;-74
2022/09/03 09:34:10;;;;;;;5.78;1.30;;;;;;;25.38;34.65;100983.09;5146740;28;20482;-74
2022/09/03 09:36:49;;;;;;;3.17;1.40;;;;;;;25.50;33.35;100979.94;5146209;29;20031;-74
2022/09/03 09:39:21;;;;;;;3.15;1.10;;;;;;;25.35;33.59;100978.09;5145403;29;20102;-74
2022/09/03 09:42:20;;;;;;;5.38;1.70;;;;;;;25.70;33.50;100974.81;5147378;28;20061;-74
2022/09/03 09:44:52;;;;;;;5.68;1.35;;;;;;;25.42;33.16;100970.13;5145430;28;20044;-74
2022/09/03 09:47:38;;;;;;;6.95;1.88;;;;;;;25.58;33.17;100978.97;5147028;28;20077;-74
2022/09/03 09:50:20;;;;;;;4.28;1.10;;;;;;;25.70;33.96;100982.84;5146400;28;20038;-74
2022/09/03 09:53:07;;;;;;;7.03;1.45;;;;;;;25.67;33.17;100982.41;5147203;28;20019;-73
2022/09/03 09:55:51;;;;;;;6.90;1.50;;;;;;;25.86;33.56;100989.00;5147133;29;20066;-74
2022/09/03 09:58:25;;;;;;;6.70;1.85;;;;;;;25.78;33.34;100984.56;5151367;28;20102;-73
2022/09/03 10:01:13;;;;;;;6.47;1.38;;;;;;;25.85;33.37;100984.66;5141186;29;20038;-73
2022/09/03 10:03:54;;;;;;;5.10;1.50;;;;;;;25.95;32.76;100990.53;5125772;29;20067;-74
2022/09/03 10:09:22;;;;;;;6.22;1.63;;;;;;;25.91;32.39;100980.38;5131161;29;20115;-73
2022/09/03 10:12:35;;;;;;;8.68;1.50;;;;;;;26.21;32.93;100975.72;5145672;28;20085;-70
2022/09/03 10:15:24;;;;;;;7.45;1.75;;;;;;;26.12;33.64;100978.69;5087647;29;20665;-70
2022/09/03 10:18:26;;;;;;;7.82;1.75;;;;;;;26.31;33.11;100975.38;5087097;29;20096;-70
2022/09/03 10:21:10;;;;;;;4.93;1.67;;;;;;;26.09;32.87;100963.84;5143753;28;20154;-70
2022/09/03 10:23:55;;;;;;;6.45;1.27;;;;;;;26.51;32.91;100969.34;5148122;28;20042;-73
2022/09/03 10:26:31;;;;;;;6.65;1.77;;;;;;;26.20;33.08;100960.63;5152448;28;20042;-70
2022/09/03 10:29:05;;;;;;;8.07;1.23;;;;;;;26.74;33.23;100960.19;5149436;28;20499;-70
2022/09/03 10:31:59;;;;;;;6.28;1.60;;;;;;;26.93;33.54;100963.19;5148545;28;20035;-70
2022/09/03 10:34:41;;;;;;;6.38;1.45;;;;;;;27.17;32.15;100958.38;5148621;28;20177;-70
2022/09/03 10:37:33;;;;;;;5.78;1.52;;;;;;;27.65;32.17;100957.47;5150348;28;20031;-69
2022/09/03 10:40:27;;;;;;;3.50;1.38;;;;;;;27.99;30.96;100964.81;5156860;28;20612;-70
2022/09/03 10:43:36;;;;;;;8.73;1.50;;;;;;;28.16;30.92;100965.22;5138401;28;20053;-71
2022/09/03 10:46:33;;;;;;;3.42;1.17;;;;;;;28.60;30.32;100964.78;5153031;28;20031;-77
2022/09/03 10:49:25;;;;;;;5.32;1.15;;;;;;;28.52;30.31;100962.31;5147560;28;20057;-73
2022/09/03 10:52:11;;;;;;;2.75;1.15;;;;;;;28.75;29.98;100962.69;5148820;28;20024;-72
2022/09/03 10:54:51;;;;;;;4.47;1.80;;;;;;;28.94;29.30;100954.75;5132194;29;20035;-74
2022/09/03 10:57:29;;;;;;;4.63;1.75;;;;;;;28.62;29.35;100957.34;5141990;29;20145;-73
2022/09/03 11:00:11;;;;;;;6.53;1.17;;;;;;;28.83;29.50;100958.09;5150140;28;20034;-74
2022/09/03 11:02:52;;;;;;;8.32;1.40;;;;;;;28.58;30.47;100965.00;5149820;28;20486;-74
2022/09/03 11:05:28;;;;;;;5.28;1.48;;;;;;;29.08;28.87;100960.13;5149708;28;20051;-73
2022/09/03 11:08:09;;;;;;;6.45;1.60;;;;;;;28.95;29.33;100951.03;5143015;28;20032;-77
2022/09/03 11:10:47;;;;;;;5.30;1.85;;;;;;;28.74;29.48;100968.28;5135777;28;20087;-74
2022/09/03 11:13:39;;;;;;;5.18;1.08;;;;;;;28.78;29.53;100961.44;5134647;28;20109;-76
2022/09/03 11:16:18;;;;;;;9.77;1.60;;;;;;;29.04;29.32;100964.28;5142635;28;20682;-76
2022/09/03 11:18:58;;;;;;;5.80;1.25;;;;;;;28.68;29.10;100961.88;5135676;28;20043;-74
2022/09/03 11:21:33;;;;;;;7.97;1.40;;;;;;;28.81;29.29;100954.78;5137162;29;20070;-74
2022/09/03 11:24:14;;;;;;;5.55;1.55;;;;;;;28.48;29.37;100951.13;5136179;28;20256;-73
2022/09/03 11:26:52;;;;;;;5.15;1.50;;;;;;;28.93;28.57;100953.09;5138991;28;20042;-72
2022/09/03 11:29:41;;;;;;;6.40;1.25;;;;;;;28.87;29.35;100943.16;5136925;29;20723;-70
2022/09/03 11:32:25;;;;;;;6.47;1.30;;;;;;;28.88;29.29;100947.50;5138283;28;20038;-71
2022/09/03 11:34:56;;;;;;;4.80;1.50;;;;;;;28.69;29.81;100954.63;5137129;29;20425;-74
2022/09/03 11:37:29;;;;;;;5.28;1.30;;;;;;;28.94;28.61;100937.75;5138468;28;20027;-73
2022/09/03 11:40:18;;;;;;;4.38;1.35;;;;;;;28.81;28.90;100944.00;5136585;29;20505;-75
2022/09/03 11:42:49;;;;;;;4.88;1.40;;;;;;;28.70;28.29;100948.19;5139257;29;20038;-73
2022/09/03 11:45:20;;;;;;;4.32;1.33;;;;;;;28.41;29.67;100944.94;5137579;29;20409;-83
2022/09/03 11:47:53;;;;;;;7.40;1.50;;;;;;;28.27;30.57;100931.47;5137049;28;20083;-79
2022/09/03 11:50:25;;;;;;;15.10;2.30;;;;;;;28.28;30.94;100941.19;5138245;29;20061;-76
2022/09/03 11:53:23;;;;;;;8.32;1.45;;;;;;;28.70;30.50;100938.25;5137376;29;20094;-73
2022/09/03 11:56:04;;;;;;;5.45;1.40;;;;;;;28.68;29.37;100936.81;5137891;28;20031;-75
2022/09/03 11:58:38;;;;;;;14.70;1.45;;;;;;;28.96;29.30;100938.34;5137704;28;20110;-75
2022/09/03 12:01:10;;;;;;;;;;;;;;;29.28;29.40;100945.72;5136148;28;20038;-74
2022/09/03 12:03:46;;;;;;;224.45;16.80;;;;;;;28.68;30.59;100943.00;5137214;28;19936;-73
2022/09/03 12:06:42;;;;;;;9.75;1.98;;;;;;;28.78;30.18;100933.66;5137107;29;20035;-73
2022/09/03 12:09:34;;;;;;;11.13;1.50;;;;;;;29.03;28.77;100936.50;5137720;28;20036;-74
2022/09/03 12:12:17;;;;;;;9.48;1.80;;;;;;;29.15;29.19;100952.81;5136432;29;20055;-73
2022/09/03 12:15:01;;;;;;;9.67;1.80;;;;;;;28.98;29.68;100947.06;5136769;28;20114;-72
2022/09/03 12:17:48;;;;;;;6.57;1.40;;;;;;;29.14;28.89;100948.47;5137269;29;20042;-73
2022/09/03 12:20:27;;;;;;;6.47;1.50;;;;;;;28.84;29.73;100943.59;5135968;29;20129;-74